Time;durP1;ratioP1;P1;durP2;ratioP2;P2;SDS_P1;SDS_P2;PMS_P1;PMS_P2;Temp;Humidity;BMP_temperature;BMP_pressure;BME280_temperature;BME280_humidity;BME280_pressure;Samples;Min_cycle;Max_cycle;Signal;HPM_P1;HPM_P2
2022/01/23 00:02:27;;;;;;;2.63;2.43;;;-0.20;99.90;-0.40;97732.00;;;;4996176;28;20429;-85
2022/01/23 00:05:18;;;;;;;4.07;3.07;;;0.40;99.90;-0.40;97741.00;;;;5000534;28;20520;-86
2022/01/23 00:08:07;;;;;;;3.20;2.90;;;0.60;99.90;-0.30;97739.00;;;;4997422;28;20460;-86
2022/01/23 00:10:56;;;;;;;3.20;2.83;;;0.50;99.90;-0.30;97738.00;;;;4993553;28;20427;-86
2022/01/23 00:20:15;;;;;;;5.07;3.63;;;0.40;99.90;-0.50;97735.00;;;;4934718;29;20466;-86
2022/01/23 00:23:13;;;;;;;3.63;3.13;;;0.20;99.90;-0.60;97737.00;;;;4997703;28;20472;-85
2022/01/23 00:32:17;;;;;;;3.10;2.80;;;0.80;99.90;-0.50;97738.00;;;;4989388;28;20646;-85
2022/01/23 00:35:07;;;;;;;4.43;3.60;;;-0.10;99.90;-0.60;97746.00;;;;4996076;28;20459;-85
2022/01/23 00:37:57;;;;;;;4.93;4.20;;;-0.10;99.90;-0.60;97742.00;;;;5002899;28;20949;-86
2022/01/23 00:40:48;;;;;;;6.83;3.77;;;-0.10;99.90;-0.60;97747.00;;;;4998775;28;20832;-85
2022/01/23 00:43:40;;;;;;;4.13;2.97;;;0.50;99.90;-0.70;97757.00;;;;4997329;28;20832;-85
2022/01/23 00:46:33;;;;;;;3.20;2.90;;;0.90;99.90;-0.70;97746.00;;;;4996145;28;20476;-85
2022/01/23 00:49:26;;;;;;;4.80;3.37;;;0.60;99.90;-0.80;97741.00;;;;5004905;28;20480;-86
2022/01/23 00:52:17;;;;;;;5.20;3.80;;;-0.20;99.90;-0.70;97729.00;;;;4994576;28;20429;-86
2022/01/23 00:55:07;;;;;;;7.30;3.37;;;0.10;99.90;-0.60;97729.00;;;;5007451;28;20453;-86
2022/01/23 00:57:56;;;;;;;6.50;3.53;;;-0.20;99.90;-0.60;97733.00;;;;5004504;28;20441;-85
2022/01/23 01:00:45;;;;;;;3.77;3.20;;;0.90;99.90;-0.70;97723.00;;;;4999789;28;20548;-85
2022/01/23 01:03:34;;;;;;;4.37;3.07;;;-0.20;99.90;-0.50;97734.00;;;;5002499;28;21081;-85
2022/01/23 01:06:24;;;;;;;4.97;3.50;;;0.00;99.90;-0.30;97721.00;;;;5001553;28;20951;-85
2022/01/23 01:09:14;;;;;;;3.20;2.73;;;-0.10;99.90;-0.50;97726.00;;;;4999613;28;20473;-85
2022/01/23 01:12:05;;;;;;;3.27;2.90;;;-0.10;99.90;-0.50;97720.00;;;;4997237;28;20431;-86
2022/01/23 01:30:56;;;;;;;3.53;2.93;;;0.70;99.90;-0.60;97725.00;;;;4943063;29;20799;-85
2022/01/23 01:33:49;;;;;;;5.17;3.03;;;-0.20;99.90;-0.80;97720.00;;;;4940976;29;20582;-85
2022/01/23 01:36:46;;;;;;;3.23;2.93;;;-0.20;99.90;-0.80;97734.00;;;;4999597;28;20827;-85
2022/01/23 01:39:37;;;;;;;4.90;3.20;;;-0.20;99.90;-0.80;97721.00;;;;4999003;28;20969;-85
2022/01/23 01:42:26;;;;;;;4.67;2.77;;;0.00;99.90;-0.70;97721.00;;;;5006905;28;20440;-86
2022/01/23 01:45:22;;;;;;;3.27;2.93;;;0.20;99.90;-0.70;97712.00;;;;4999009;28;20515;-85
2022/01/23 01:48:13;;;;;;;3.60;2.73;;;0.20;99.90;-0.50;97718.00;;;;5001857;28;20425;-85
2022/01/23 01:51:05;;;;;;;4.03;2.80;;;0.00;99.90;-0.40;97712.00;;;;4995792;28;20824;-85
2022/01/23 01:53:58;;;;;;;4.07;3.10;;;0.00;99.90;-0.30;97706.00;;;;4999154;28;20865;-85
2022/01/23 01:56:51;;;;;;;3.57;2.93;;;0.40;99.90;-0.30;97695.00;;;;5001941;28;20433;-86
2022/01/23 02:00:12;;;;;;;3.20;2.90;;;0.80;99.90;-0.40;97700.00;;;;5005070;28;20429;-86
2022/01/23 02:03:35;;;;;;;3.27;2.50;;;0.30;99.90;-0.60;97698.00;;;;5002444;28;20449;-85
2022/01/23 02:09:36;;;;;;;4.17;2.97;;;0.40;99.90;-0.70;97690.00;;;;5001528;28;20466;-86
2022/01/23 02:22:29;;;;;;;2.97;2.67;;;0.00;99.90;-1.20;97693.00;;;;5016699;28;20445;-85
2022/01/23 02:25:16;;;;;;;4.10;2.87;;;0.30;99.90;-1.20;97691.00;;;;5010487;28;20449;-86
2022/01/23 02:53:28;;;;;;;4.13;3.40;;;0.20;99.90;-0.90;97690.00;;;;4993647;28;20453;-85
2022/01/23 02:56:21;;;;;;;3.43;3.07;;;0.40;99.90;-0.90;97696.00;;;;4992069;28;20446;-85
2022/01/23 02:59:19;;;;;;;3.80;3.03;;;-0.20;99.90;-0.90;97687.00;;;;4996746;28;20823;-85
2022/01/23 03:02:13;;;;;;;4.70;2.90;;;-0.40;99.90;-0.80;97700.00;;;;5004393;28;20799;-85
2022/01/23 03:05:04;;;;;;;5.93;3.53;;;-0.10;99.90;-0.90;97696.00;;;;5002889;28;20456;-86
2022/01/23 03:08:01;;;;;;;2.83;2.50;;;-0.40;99.90;-0.90;97687.00;;;;4999596;28;20434;-85
2022/01/23 03:11:01;;;;;;;3.70;2.80;;;0.00;99.90;-1.10;97677.00;;;;4995882;28;20462;-85
2022/01/23 03:13:55;;;;;;;3.17;2.87;;;-0.50;99.90;-1.20;97690.00;;;;5000813;28;20450;-85
2022/01/23 03:26:20;;;;;;;3.03;2.70;;;0.00;99.90;-1.40;97665.00;;;;4999808;28;20438;-84
2022/01/23 03:29:21;;;;;;;5.70;3.03;;;-0.60;99.90;-1.20;97673.00;;;;4998719;28;20430;-85
2022/01/23 03:32:20;;;;;;;4.33;3.23;;;0.10;99.90;-1.20;97673.00;;;;4995992;28;20806;-85
2022/01/23 03:35:09;;;;;;;3.43;2.80;;;-0.70;99.90;-1.10;97676.00;;;;5002600;28;20453;-85
2022/01/23 03:37:58;;;;;;;3.90;2.93;;;-0.70;99.90;-1.20;97664.00;;;;4993195;28;20777;-85
2022/01/23 03:40:47;;;;;;;3.73;2.57;;;-0.10;99.90;-1.20;97651.00;;;;4993704;28;20441;-85
2022/01/23 03:43:39;;;;;;;3.47;3.03;;;-0.10;99.90;-1.30;97648.00;;;;5002718;28;20460;-85
2022/01/23 03:49:35;;;;;;;3.73;2.80;;;-0.80;99.90;-1.40;97652.00;;;;4998361;28;20999;-85
2022/01/23 03:52:24;;;;;;;4.90;2.60;;;-0.50;99.90;-1.40;97646.00;;;;4998466;28;20433;-85
2022/01/23 03:55:13;;;;;;;3.07;2.77;;;-0.60;99.90;-1.40;97636.00;;;;4993228;28;20474;-85
2022/01/23 03:58:02;;;;;;;3.43;2.30;;;-0.60;99.90;-1.40;97633.00;;;;4994506;28;20425;-85
2022/01/23 04:00:52;;;;;;;3.67;2.80;;;-0.40;99.90;-1.50;97639.00;;;;4998484;28;20431;-84
2022/01/23 04:03:41;;;;;;;5.03;2.63;;;-1.00;99.90;-1.60;97650.00;;;;5001963;28;20962;-85
2022/01/23 04:06:30;;;;;;;2.90;2.43;;;-1.00;99.90;-1.60;97657.00;;;;4995869;28;20421;-84
2022/01/23 04:09:19;;;;;;;3.33;2.97;;;-0.90;99.90;-1.60;97659.00;;;;5002524;28;20817;-85
2022/01/23 04:12:12;;;;;;;3.47;2.43;;;-0.70;99.90;-1.70;97663.00;;;;4996941;28;20448;-84
2022/01/23 04:15:10;;;;;;;9.70;2.70;;;-1.10;99.90;-1.80;97660.00;;;;4999324;28;20453;-85
2022/01/23 04:21:16;;;;;;;3.07;2.77;;;-1.30;99.90;-1.90;97667.00;;;;4993856;28;20449;-85
2022/01/23 04:33:44;;;;;;;4.77;4.37;;;-1.40;99.90;-2.50;97664.00;;;;5001480;28;20564;-84
2022/01/23 04:46:13;;;;;;;2.83;2.57;;;-1.10;99.90;-2.00;97675.00;;;;4998794;28;20429;-85
2022/01/23 04:59:33;;;;;;;3.00;2.80;;;-1.60;99.90;-2.30;97685.00;;;;5008256;28;20436;-85
2022/01/23 05:01:51;;;;;;;4.07;3.63;;;-1.70;99.90;-2.60;97684.00;;;;4993625;28;20433;-85
2022/01/23 05:04:42;;;;;;;3.23;2.87;;;-1.80;99.90;-2.50;97694.00;;;;4991690;28;20441;-85
2022/01/23 05:07:31;;;;;;;3.53;3.23;;;-1.80;99.90;-2.40;97687.00;;;;5001347;28;20429;-85
2022/01/23 05:10:20;;;;;;;3.67;3.33;;;-1.80;99.90;-2.50;97699.00;;;;5005661;28;20471;-85
2022/01/23 05:13:09;;;;;;;4.70;2.23;;;-1.30;99.90;-2.60;97691.00;;;;5006965;28;20548;-85
2022/01/23 05:15:58;;;;;;;4.53;2.70;;;-1.20;99.90;-2.50;97695.00;;;;5005162;28;20445;-85
2022/01/23 05:18:47;;;;;;;3.27;2.60;;;-1.90;99.90;-2.40;97697.00;;;;4999671;28;20429;-85
2022/01/23 05:24:51;;;;;;;6.17;3.60;;;-1.90;99.90;-2.50;97704.00;;;;4990975;28;20453;-85
2022/01/23 05:27:40;;;;;;;2.60;2.23;;;-1.90;99.90;-2.50;97691.00;;;;5009660;28;20440;-86
2022/01/23 05:30:29;;;;;;;4.23;2.77;;;-1.80;99.90;-2.40;97698.00;;;;5004658;28;20484;-85
2022/01/23 05:33:18;;;;;;;6.00;3.33;;;-1.80;99.90;-2.30;97700.00;;;;5001229;28;20465;-85
2022/01/23 05:36:07;;;;;;;3.93;3.60;;;-1.80;99.90;-2.10;97703.00;;;;5006507;28;21069;-85
2022/01/23 05:38:58;;;;;;;3.50;2.67;;;-1.70;99.90;-2.00;97707.00;;;;5004763;28;20437;-85
2022/01/23 05:41:47;;;;;;;4.37;3.03;;;-1.00;99.90;-1.90;97709.00;;;;5009426;28;20441;-86
2022/01/23 05:44:37;;;;;;;3.07;2.77;;;-1.60;99.90;-1.80;97719.00;;;;5009399;28;20471;-85
2022/01/23 05:47:26;;;;;;;2.83;2.63;;;-0.90;99.90;-2.00;97701.00;;;;5000834;28;20429;-85
2022/01/23 05:50:15;;;;;;;3.77;2.80;;;-1.30;99.90;-1.90;97701.00;;;;5003449;28;20844;-85
2022/01/23 05:53:04;;;;;;;3.80;2.90;;;-0.90;99.90;-2.00;97707.00;;;;5002185;28;20447;-85
2022/01/23 05:55:55;;;;;;;3.43;3.00;;;-1.20;99.90;-2.00;97709.00;;;;4993470;28;20974;-85
2022/01/23 05:58:44;;;;;;;3.60;2.87;;;-1.50;99.90;-2.00;97699.00;;;;5006019;28;20451;-85
2022/01/23 06:01:33;;;;;;;3.83;3.23;;;-0.10;99.90;-1.90;97695.00;;;;5002518;28;20485;-85
2022/01/23 06:04:24;;;;;;;3.77;3.27;;;-1.50;99.90;-2.00;97709.00;;;;4999355;28;20476;-85
2022/01/23 06:07:13;;;;;;;3.93;3.53;;;-1.50;99.90;-2.00;97708.00;;;;5002449;28;20442;-85
2022/01/23 06:10:02;;;;;;;2.63;2.30;;;-1.20;99.90;-2.00;97716.00;;;;5007361;28;20421;-85
2022/01/23 06:12:52;;;;;;;3.47;3.17;;;-1.50;99.90;-2.20;97718.00;;;;5007798;28;20428;-85
2022/01/23 06:15:41;;;;;;;3.63;2.97;;;-1.50;99.90;-2.10;97720.00;;;;5002493;28;20442;-85
2022/01/23 06:18:30;;;;;;;3.57;2.93;;;-1.60;99.90;-2.20;97713.00;;;;5008657;28;20437;-86
2022/01/23 06:21:19;;;;;;;3.27;2.93;;;-1.60;99.90;-2.10;97723.00;;;;5001249;28;20448;-85
2022/01/23 06:24:13;;;;;;;5.87;2.67;;;-1.60;99.90;-2.20;97724.00;;;;5002770;28;20464;-86
2022/01/23 06:27:03;;;;;;;2.87;2.60;;;-1.60;99.90;-1.90;97716.00;;;;4998860;28;20438;-85
2022/01/23 06:29:53;;;;;;;3.53;3.20;;;-1.50;99.90;-1.80;97723.00;;;;5000263;28;20436;-85
2022/01/23 06:32:42;;;;;;;4.70;3.23;;;-1.50;99.90;-1.80;97737.00;;;;5011588;28;20433;-85
2022/01/23 06:35:31;;;;;;;4.07;2.73;;;-1.50;99.90;-1.90;97736.00;;;;5003377;28;20950;-85
2022/01/23 06:38:20;;;;;;;3.13;2.73;;;-0.90;99.90;-1.90;97731.00;;;;5008679;28;20425;-85
2022/01/23 06:41:09;;;;;;;4.60;2.63;;;-0.90;99.90;-2.20;97745.00;;;;5005534;28;20820;-85
2022/01/23 06:43:58;;;;;;;4.23;2.90;;;-0.90;99.90;-2.10;97743.00;;;;5004370;28;20461;-85
2022/01/23 06:46:49;;;;;;;5.10;3.57;;;-1.40;99.90;-2.10;97731.00;;;;5008149;28;20927;-85
2022/01/23 06:49:37;;;;;;;4.73;3.30;;;-1.50;99.90;-2.00;97744.00;;;;4995905;28;20436;-86
2022/01/23 06:52:26;;;;;;;3.83;2.97;;;-0.70;99.90;-2.00;97742.00;;;;5000773;28;20856;-85
2022/01/23 06:55:17;;;;;;;6.47;3.10;;;-1.50;99.90;-2.00;97745.00;;;;5006368;28;20433;-85
2022/01/23 06:58:05;;;;;;;4.90;3.07;;;-1.30;99.90;-1.90;97752.00;;;;4993975;28;20821;-85
2022/01/23 07:00:54;;;;;;;4.10;3.57;;;-1.50;99.90;-1.80;97752.00;;;;4996156;28;20468;-85
2022/01/23 07:03:45;;;;;;;5.37;4.33;;;-1.40;99.90;-1.90;97752.00;;;;4997387;28;20471;-85
2022/01/23 07:06:34;;;;;;;6.13;4.90;;;-1.60;99.90;-1.80;97772.00;;;;5004477;28;20600;-85
2022/01/23 07:09:27;;;;;;;5.67;3.97;;;-1.40;99.90;-1.90;97771.00;;;;5004274;28;20430;-86
2022/01/23 07:12:16;;;;;;;6.40;4.20;;;-0.70;99.90;-1.90;97766.00;;;;5001773;28;20460;-86
2022/01/23 07:15:06;;;;;;;3.77;2.70;;;-1.40;99.90;-2.20;97761.00;;;;5005962;28;20473;-85
2022/01/23 07:17:55;;;;;;;4.37;3.67;;;-1.40;99.90;-2.10;97775.00;;;;4998343;28;20442;-85
2022/01/23 07:20:46;;;;;;;5.83;5.23;;;-0.60;99.90;-2.00;97785.00;;;;5004281;28;20426;-86
2022/01/23 07:23:35;;;;;;;11.47;7.43;;;-1.40;99.90;-1.80;97792.00;;;;5000645;28;20464;-85
2022/01/23 07:26:26;;;;;;;11.53;7.60;;;-1.40;99.90;-1.60;97792.00;;;;5006882;28;20437;-85
2022/01/23 07:29:17;;;;;;;6.77;5.07;;;-1.40;99.90;-1.70;97782.00;;;;4999072;28;20442;-85
2022/01/23 07:32:08;;;;;;;4.87;3.73;;;-1.00;99.90;-1.50;97793.00;;;;4999439;28;20491;-86
2022/01/23 07:34:57;;;;;;;3.37;2.77;;;-1.30;99.90;-1.20;97795.00;;;;4996030;28;20449;-86
2022/01/23 07:37:47;;;;;;;6.07;4.80;;;-1.10;99.90;-1.40;97791.00;;;;5009307;28;20445;-85
2022/01/23 07:40:36;;;;;;;5.13;4.20;;;-1.10;99.90;-1.20;97795.00;;;;4997728;28;20444;-85
2022/01/23 07:43:25;;;;;;;5.53;4.43;;;-1.00;99.90;-1.10;97791.00;;;;5008488;28;20467;-86
2022/01/23 07:46:14;;;;;;;4.83;3.70;;;-0.70;99.90;-1.20;97781.00;;;;5005103;28;20961;-85
2022/01/23 07:49:03;;;;;;;3.87;3.43;;;-0.90;99.90;-1.10;97799.00;;;;5004325;28;20434;-86
2022/01/23 07:51:52;;;;;;;4.70;4.00;;;-0.80;99.90;-1.00;97804.00;;;;5007659;28;20857;-86
2022/01/23 07:54:43;;;;;;;5.17;3.87;;;-0.20;99.90;-0.90;97815.00;;;;5003040;28;20461;-86
2022/01/23 07:57:32;;;;;;;4.63;3.73;;;-0.70;99.90;-1.00;97806.00;;;;5000069;28;20800;-86
2022/01/23 08:00:22;;;;;;;4.57;4.10;;;-0.50;99.90;-0.80;97819.00;;;;4998479;28;20448;-87
2022/01/23 08:03:11;;;;;;;4.00;3.43;;;-0.70;99.90;-0.70;97811.00;;;;5001519;28;21001;-85
2022/01/23 08:06:01;;;;;;;3.47;3.17;;;-0.20;99.90;-0.50;97813.00;;;;4996068;28;20430;-85
2022/01/23 08:08:50;;;;;;;6.03;4.30;;;-0.50;99.90;-0.50;97818.00;;;;5003274;28;20442;-85
2022/01/23 08:11:41;;;;;;;4.20;3.73;;;-0.20;99.90;-0.60;97819.00;;;;5003059;28;20869;-86
2022/01/23 08:14:29;;;;;;;4.40;3.93;;;-0.40;99.90;-0.50;97829.00;;;;5002507;28;20907;-86
2022/01/23 08:17:24;;;;;;;4.73;3.63;;;0.10;99.90;-0.60;97826.00;;;;4999386;28;20437;-85
2022/01/23 08:20:13;;;;;;;4.87;4.27;;;-0.30;99.90;-0.30;97829.00;;;;4999681;28;20440;-85
2022/01/23 08:23:04;;;;;;;4.50;4.10;;;1.20;99.90;-0.10;97844.00;;;;5001019;28;20444;-86
2022/01/23 08:25:53;;;;;;;5.40;4.80;;;0.50;99.90;-0.20;97832.00;;;;5000798;28;20439;-85
2022/01/23 08:28:44;;;;;;;7.10;3.97;;;-0.10;99.90;0.00;97841.00;;;;5003747;28;20938;-85
2022/01/23 08:31:33;;;;;;;4.73;4.07;;;0.00;99.90;0.00;97855.00;;;;4998898;28;20810;-86
2022/01/23 08:34:22;;;;;;;5.70;4.77;;;0.10;99.90;0.10;97853.00;;;;5000806;28;20945;-86
2022/01/23 08:37:12;;;;;;;7.90;4.67;;;1.10;99.90;0.10;97859.00;;;;5001294;28;21070;-86
2022/01/23 08:40:23;;;;;;;5.00;4.17;;;0.20;99.90;0.70;97866.00;;;;5001593;28;20441;-90
2022/01/23 08:43:15;;;;;;;4.30;3.83;;;-0.20;99.90;0.90;97883.00;;;;5000318;28;20464;-90
2022/01/23 08:46:06;;;;;;;5.50;3.60;;;0.60;99.90;1.40;97872.00;;;;5001807;28;21023;-89
2022/01/23 08:48:56;;;;;;;5.23;3.20;;;1.30;99.90;1.40;97879.00;;;;5002145;28;20447;-89
2022/01/23 08:51:45;;;;;;;5.17;3.83;;;2.00;99.90;1.40;97875.00;;;;4998365;28;20472;-90
2022/01/23 08:54:35;;;;;;;3.40;3.10;;;1.20;99.90;1.60;97885.00;;;;5004484;28;20453;-90
2022/01/23 08:57:26;;;;;;;4.97;3.10;;;1.30;99.90;1.80;97886.00;;;;5000470;28;20518;-89
2022/01/23 09:00:18;;;;;;;5.37;3.03;;;1.50;99.90;1.60;97884.00;;;;5000417;28;20433;-91
2022/01/23 09:03:08;;;;;;;4.80;3.73;;;1.60;99.90;1.60;97887.00;;;;5000306;28;20652;-90
2022/01/23 09:05:57;;;;;;;5.53;3.97;;;1.60;99.90;1.60;97892.00;;;;5000673;28;20434;-89
2022/01/23 09:08:46;;;;;;;5.03;4.30;;;1.70;99.90;1.70;97894.00;;;;5000555;28;20449;-89
2022/01/23 09:11:52;;;;;;;5.10;3.90;;;1.70;99.90;1.80;97893.00;;;;5000515;28;20900;-89
2022/01/23 09:14:41;;;;;;;9.83;5.70;;;1.80;99.90;1.60;97886.00;;;;4997868;28;20591;-89
2022/01/23 09:17:30;;;;;;;9.90;4.83;;;1.90;99.90;1.60;97901.00;;;;5001149;28;20444;-89
2022/01/23 09:20:21;;;;;;;7.43;4.93;;;1.90;99.90;1.70;97894.00;;;;5000529;28;20441;-89
2022/01/23 09:23:09;;;;;;;8.00;4.63;;;1.90;99.90;1.90;97903.00;;;;4999809;28;20544;-89
2022/01/23 09:26:01;;;;;;;9.73;6.10;;;1.90;99.90;2.20;97895.00;;;;4997927;28;21159;-89
2022/01/23 09:28:52;;;;;;;4.47;4.07;;;2.00;99.90;2.40;97897.00;;;;4998431;28;20431;-89
2022/01/23 09:31:52;;;;;;;8.83;5.30;;;2.00;99.90;2.30;97890.00;;;;4999524;28;20934;-91
2022/01/23 09:34:48;;;;;;;6.23;5.53;;;2.20;99.90;2.70;97892.00;;;;4997826;28;20572;-89
2022/01/23 09:37:39;;;;;;;7.13;5.20;;;2.30;99.90;3.00;97894.00;;;;4998393;28;20440;-88
2022/01/23 09:40:28;;;;;;;9.87;5.13;;;2.50;99.90;3.50;97897.00;;;;4997883;28;20518;-88
2022/01/23 09:43:20;;;;;;;6.93;5.40;;;2.80;99.90;3.70;97890.00;;;;4997993;28;20495;-87
2022/01/23 09:46:09;;;;;;;8.03;5.37;;;3.10;99.90;3.70;97887.00;;;;4997086;28;20436;-88
2022/01/23 09:48:59;;;;;;;6.17;5.50;;;3.30;99.90;4.00;97889.00;;;;4994577;28;20647;-88
2022/01/23 09:51:50;;;;;;;5.00;4.53;;;3.50;99.90;4.40;97896.00;;;;4996344;28;20210;-88
2022/01/23 09:54:44;;;;;;;7.57;5.10;;;3.80;99.90;4.00;97877.00;;;;4997126;28;20711;-89
2022/01/23 09:57:33;;;;;;;7.20;5.77;;;4.00;99.90;4.70;97874.00;;;;4994777;28;20198;-89
2022/01/23 10:00:26;;;;;;;12.17;6.73;;;4.10;99.90;4.80;97890.00;;;;4997606;28;20206;-88
2022/01/23 10:03:19;;;;;;;9.63;5.60;;;4.30;99.90;5.10;97900.00;;;;4998735;28;20622;-89
2022/01/23 10:06:09;;;;;;;11.77;6.80;;;4.50;99.90;5.10;97908.00;;;;4998336;28;20207;-86
2022/01/23 10:08:59;;;;;;;9.37;5.47;;;4.70;99.90;5.40;97897.00;;;;5000639;28;20205;-86
2022/01/23 10:11:50;;;;;;;9.57;5.30;;;4.80;99.90;5.00;97900.00;;;;4997604;28;20209;-86
2022/01/23 10:14:39;;;;;;;4.97;3.83;;;4.90;99.90;5.30;97887.00;;;;5000250;28;20660;-86
2022/01/23 10:17:28;;;;;;;4.93;4.50;;;5.00;99.90;5.60;97884.00;;;;4998994;28;20210;-86
2022/01/23 10:20:17;;;;;;;7.77;5.67;;;5.10;99.90;5.60;97882.00;;;;4999390;28;20202;-87
2022/01/23 10:23:06;;;;;;;7.87;4.20;;;5.20;99.90;5.60;97882.00;;;;4995504;28;20579;-86
2022/01/23 10:25:55;;;;;;;7.33;5.03;;;5.40;99.90;5.90;97878.00;;;;4998209;28;20715;-87
2022/01/23 10:28:47;;;;;;;6.83;4.63;;;5.50;99.90;5.80;97874.00;;;;4999031;28;20202;-87
2022/01/23 10:32:19;;;;;;;5.57;4.83;;;5.50;99.90;5.50;97885.00;;;;4997533;28;20202;-87
2022/01/23 10:35:08;;;;;;;9.83;5.40;;;5.50;99.90;5.50;97870.00;;;;4998225;28;20447;-87
2022/01/23 10:37:57;;;;;;;9.33;5.67;;;5.50;99.90;5.70;97868.00;;;;4998500;28;20759;-86
2022/01/23 10:40:51;;;;;;;9.37;4.97;;;5.50;99.90;5.90;97860.00;;;;4998581;28;20302;-87
2022/01/23 10:47:33;;;;;;;12.93;6.57;;;5.80;99.90;6.00;97883.00;;;;4996008;28;20729;-87
2022/01/23 10:50:24;;;;;;;8.53;5.67;;;5.90;99.90;5.80;97883.00;;;;4999149;28;20198;-87
2022/01/23 10:53:17;;;;;;;10.40;4.10;;;5.90;99.90;5.50;97884.00;;;;4999972;28;20282;-87
2022/01/23 10:56:08;;;;;;;11.07;5.70;;;5.50;99.90;5.30;97874.00;;;;5000669;28;20293;-88
2022/01/23 10:59:05;;;;;;;10.87;5.77;;;5.60;99.90;5.20;97886.00;;;;4999011;28;20206;-87
2022/01/23 11:02:07;;;;;;;19.77;5.20;;;5.40;99.90;5.10;97880.00;;;;5003173;28;20252;-85
2022/01/23 11:05:01;;;;;;;11.13;5.93;;;5.30;99.90;4.90;97873.00;;;;4996989;28;20257;-84
2022/01/23 11:07:51;;;;;;;13.97;5.53;;;5.10;99.90;4.90;97884.00;;;;4997818;28;20190;-85
2022/01/23 11:10:54;;;;;;;15.67;6.77;;;5.00;99.90;4.80;97883.00;;;;4997120;28;20206;-85
2022/01/23 11:20:01;;;;;;;6.60;5.30;;;4.70;99.90;4.70;97874.00;;;;4995724;28;20683;-84
2022/01/23 11:22:50;;;;;;;12.77;5.57;;;4.60;99.90;4.60;97866.00;;;;4995876;28;21018;-85
2022/01/23 11:25:39;;;;;;;9.20;6.17;;;4.60;99.90;4.40;97859.00;;;;4995749;28;20445;-84
2022/01/23 11:28:29;;;;;;;12.43;5.73;;;4.50;99.90;4.50;97857.00;;;;4997349;28;20210;-80
2022/01/23 11:31:22;;;;;;;13.43;5.73;;;4.50;99.90;4.60;97865.00;;;;5001340;28;20209;-82
2022/01/23 11:34:15;;;;;;;17.93;6.20;;;4.50;99.90;4.60;97864.00;;;;4999500;28;20237;-84
2022/01/23 11:37:06;;;;;;;15.97;7.43;;;4.50;99.90;4.60;97861.00;;;;4998620;28;20225;-82
2022/01/23 11:40:05;;;;;;;7.83;5.50;;;4.50;99.90;4.50;97854.00;;;;4999737;28;20206;-83
2022/01/23 11:55:39;;;;;;;17.60;6.80;;;4.40;99.90;4.40;97837.00;;;;4999571;28;20204;-85
2022/01/23 11:58:37;;;;;;;10.10;5.80;;;4.30;99.90;4.40;97834.00;;;;4997672;28;21024;-86
2022/01/23 12:01:26;;;;;;;12.27;6.77;;;4.30;99.90;4.50;97831.00;;;;4997265;28;20205;-85
2022/01/23 12:04:20;;;;;;;11.33;6.77;;;4.40;99.90;4.60;97832.00;;;;4994019;28;20238;-87
2022/01/23 12:07:21;;;;;;;26.23;8.10;;;4.40;99.90;4.80;97830.00;;;;4996135;28;20214;-86
2022/01/23 12:10:18;;;;;;;11.23;7.07;;;4.50;99.90;4.80;97823.00;;;;4995938;28;20209;-86
2022/01/23 12:13:54;;;;;;;11.90;6.77;;;4.50;99.90;4.80;97830.00;;;;4999771;28;20284;-81
2022/01/23 12:16:52;;;;;;;9.37;6.03;;;4.60;99.90;5.00;97819.00;;;;4999615;28;20209;-83
2022/01/23 12:19:50;;;;;;;8.70;6.40;;;4.70;99.90;5.10;97823.00;;;;4999430;28;20580;-81
2022/01/23 12:22:47;;;;;;;11.07;6.03;;;4.80;99.90;5.20;97812.00;;;;4998039;28;20669;-81
2022/01/23 12:25:47;;;;;;;19.27;6.80;;;4.90;99.90;5.50;97817.00;;;;4995910;28;20210;-81
2022/01/23 12:28:50;;;;;;;12.53;6.03;;;5.00;99.90;5.50;97818.00;;;;4996758;28;20232;-80
2022/01/23 12:31:40;;;;;;;24.37;8.10;;;5.20;99.90;5.60;97820.00;;;;4999601;28;20210;-81
2022/01/23 12:34:48;;;;;;;13.07;8.80;;;5.30;99.90;5.90;97810.00;;;;4995339;28;20237;-81
2022/01/23 12:38:10;;;;;;;11.23;7.27;;;5.40;99.90;6.00;97819.00;;;;5001881;28;20715;-81
2022/01/23 12:47:21;;;;;;;10.33;5.90;;;5.60;99.90;6.10;97819.00;;;;5075358;27;20824;-74
2022/01/23 12:50:10;;;;;;;6.50;5.03;;;5.90;99.90;6.40;97817.00;;;;5052564;28;20210;-74
2022/01/23 12:52:59;;;;;;;7.30;5.40;;;6.00;99.90;6.70;97820.00;;;;5042287;28;20312;-76
2022/01/23 12:56:03;;;;;;;12.77;5.90;;;6.20;99.90;6.90;97828.00;;;;5042739;28;20213;-78
2022/01/23 12:58:55;;;;;;;11.00;5.83;;;6.40;99.90;6.50;97816.00;;;;5047480;28;20230;-77
2022/01/23 13:01:46;;;;;;;9.47;5.87;;;6.50;99.90;6.70;97816.00;;;;5045739;28;20242;-76
2022/01/23 13:04:41;;;;;;;8.20;5.00;;;6.50;99.90;7.00;97813.00;;;;5047251;28;20208;-76
2022/01/23 13:07:37;;;;;;;9.83;5.17;;;6.60;99.90;6.90;97810.00;;;;5041909;28;20409;-75
2022/01/23 13:10:37;;;;;;;9.37;5.33;;;6.70;99.90;6.80;97745.00;;;;5040359;28;20205;-74
2022/01/23 13:13:36;;;;;;;9.27;4.73;;;6.90;99.90;8.30;97814.00;;;;5041801;28;20785;-75
2022/01/23 13:16:34;;;;;;;6.17;4.23;;;7.40;99.90;9.00;97822.00;;;;5044575;28;20573;-76
2022/01/23 13:19:46;;;;;;;6.57;3.37;;;7.90;99.90;9.80;97812.00;;;;5041387;28;20357;-76
2022/01/23 13:32:33;;;;;;;6.07;1.90;;;9.00;93.80;8.90;97822.00;;;;5037274;28;20610;-77
2022/01/23 13:35:26;;;;;;;1.03;0.97;;;8.90;91.50;8.80;97831.00;;;;5039532;28;20197;-75
2022/01/23 13:38:18;;;;;;;25.53;5.00;;;8.70;91.20;8.20;97819.00;;;;5038013;28;20210;-75
2022/01/23 13:41:23;;;;;;;4.43;1.30;;;8.50;89.90;8.30;97834.00;;;;5036849;28;20636;-75
2022/01/23 13:54:16;;;;;;;0.67;0.47;;;7.70;85.10;7.50;97836.00;;;;5036618;28;20277;-74
2022/01/23 14:00:22;;;;;;;0.63;0.50;;;7.50;86.20;7.50;97835.00;;;;5029883;28;20633;-74
2022/01/23 14:03:12;;;;;;;2.60;1.10;;;7.50;85.10;7.50;97846.00;;;;5029822;28;20206;-74
2022/01/23 14:06:01;;;;;;;2.43;1.07;;;7.40;85.30;7.70;97851.00;;;;5027901;28;20800;-74
2022/01/23 14:09:06;;;;;;;6.60;4.50;;;7.40;86.10;7.50;97849.00;;;;5025395;28;20200;-76
2022/01/23 14:11:55;;;;;;;2.10;1.50;;;7.40;85.50;7.20;97858.00;;;;5024907;28;20224;-74
2022/01/23 14:15:00;;;;;;;3.07;1.30;;;7.30;84.10;7.10;97831.00;;;;5028044;28;20633;-75
2022/01/23 14:18:02;;;;;;;3.27;1.27;;;7.30;84.10;8.00;97837.00;;;;5027226;28;20311;-74
2022/01/23 14:20:59;;;;;;;11.17;3.23;;;7.40;85.50;7.90;97847.00;;;;5026189;28;20262;-74
2022/01/23 14:23:54;;;;;;;1.90;0.97;;;7.60;84.50;7.60;97846.00;;;;5023136;28;20316;-74
2022/01/23 14:26:59;;;;;;;1.43;1.03;;;7.60;82.70;8.40;97806.00;;;;5020525;28;20298;-75
2022/01/23 14:29:51;;;;;;;3.27;1.83;;;7.80;83.50;8.90;97831.00;;;;5024531;28;20204;-75
2022/01/23 14:32:45;;;;;;;1.23;0.50;;;8.30;80.90;8.50;97852.00;;;;5027639;28;20205;-75
2022/01/23 14:35:35;;;;;;;2.17;1.30;;;8.80;77.30;8.70;97846.00;;;;5026244;28;20209;-72
2022/01/23 14:38:27;;;;;;;1.20;0.93;;;9.00;75.90;9.10;97863.00;;;;5023254;28;20200;-75
2022/01/23 14:41:16;;;;;;;21.70;10.87;;;9.10;76.60;8.60;97868.00;;;;5024953;28;21117;-76
2022/01/23 14:44:18;;;;;;;1.57;0.50;;;9.00;75.90;7.90;97865.00;;;;5024880;28;20219;-75
2022/01/23 14:47:10;;;;;;;0.47;0.40;;;8.60;75.20;7.10;97853.00;;;;5023742;28;20221;-75
2022/01/23 14:50:00;;;;;;;2.60;0.83;;;8.20;74.60;7.50;97862.00;;;;5028923;28;20212;-74
2022/01/23 14:52:49;;;;;;;2.97;1.07;;;7.90;76.50;7.70;97862.00;;;;5028675;28;20648;-75
2022/01/23 14:55:41;;;;;;;4.47;2.07;;;7.70;77.70;7.70;97864.00;;;;5027136;28;20559;-75
2022/01/23 14:58:33;;;;;;;5.77;2.60;;;7.60;78.50;7.50;97874.00;;;;5028932;28;20535;-74
2022/01/23 15:01:23;;;;;;;4.07;2.83;;;7.50;79.20;7.30;97874.00;;;;5022955;28;20445;-75
2022/01/23 15:04:15;;;;;;;10.57;2.93;;;7.40;80.20;7.20;97886.00;;;;5027474;28;20205;-77
2022/01/23 15:07:07;;;;;;;1.57;1.47;;;7.30;80.50;7.00;97881.00;;;;5021401;28;20233;-76
2022/01/23 15:09:56;;;;;;;1.53;1.27;;;7.20;81.60;6.80;97876.00;;;;5023581;28;20618;-77
2022/01/23 15:12:45;;;;;;;3.40;1.13;;;7.00;81.50;6.80;97873.00;;;;5025334;28;20213;-77
2022/01/23 15:15:34;;;;;;;1.63;1.03;;;6.90;82.20;6.70;97887.00;;;;5023514;28;20201;-76
2022/01/23 15:18:26;;;;;;;3.40;1.27;;;6.80;82.70;6.60;97876.00;;;;5025191;28;20216;-77
2022/01/23 15:21:15;;;;;;;3.60;1.30;;;6.70;83.50;6.40;97869.00;;;;5027471;28;20699;-77
2022/01/23 15:24:05;;;;;;;1.40;1.30;;;6.60;83.10;6.40;97884.00;;;;5023100;28;20687;-73
2022/01/23 15:26:54;;;;;;;3.00;1.80;;;6.50;83.50;6.30;97882.00;;;;5023355;28;20292;-76
2022/01/23 15:29:43;;;;;;;12.93;6.33;;;6.40;84.00;6.30;97876.00;;;;5026800;28;20212;-77
2022/01/23 15:32:32;;;;;;;5.60;2.90;;;5.90;83.40;6.20;97884.00;;;;5026629;28;20734;-74
2022/01/23 15:35:25;;;;;;;2.37;0.70;;;6.30;84.50;6.20;97886.00;;;;5023058;28;20272;-74
2022/01/23 15:38:14;;;;;;;2.23;1.20;;;6.20;84.90;6.10;97890.00;;;;5022417;28;21884;-75
2022/01/23 15:41:03;;;;;;;7.33;0.90;;;6.10;85.30;6.10;97888.00;;;;5027165;28;20240;-75
2022/01/23 15:43:52;;;;;;;1.80;0.70;;;6.10;85.70;6.00;97883.00;;;;5027279;28;20210;-74